Time;durP1;ratioP1;P1;durP2;ratioP2;P2;SDS_P1;SDS_P2;PMS_P1;PMS_P2;Temp;Humidity;BMP_temperature;BMP_pressure;BME280_temperature;BME280_humidity;BME280_pressure;Samples;Min_cycle;Max_cycle;Signal;HPM_P1;HPM_P2
2022/06/10 00:00:22;;;;;;;0.55;0.50;;;11.40;1.40;;;11.88;100.00;95850.22;619162;222;32068;-75
2022/06/10 00:03:04;;;;;;;0.60;0.40;;;11.40;1.40;;;11.85;100.00;95852.39;646029;216;31517;-75
2022/06/10 00:05:48;;;;;;;0.40;0.27;;;11.30;1.40;;;11.85;100.00;95854.19;646611;216;31597;-76
2022/06/10 00:08:31;;;;;;;0.60;0.40;;;11.30;1.40;;;11.86;100.00;95858.84;646323;216;42114;-76
2022/06/10 00:11:13;;;;;;;0.70;0.53;;;11.30;1.40;;;11.86;100.00;95859.99;646655;216;42699;-75
2022/06/10 00:13:55;;;;;;;1.00;0.50;;;11.30;1.40;;;11.84;100.00;95853.72;646728;212;31514;-75
2022/06/10 00:16:39;;;;;;;3.00;0.80;;;11.30;1.40;;;11.81;100.00;95859.64;647641;216;42688;-76
2022/06/10 00:19:21;;;;;;;0.50;0.40;;;11.30;1.40;;;11.84;100.00;95857.37;618660;225;31907;-75
2022/06/10 00:22:03;;;;;;;3.00;0.40;;;11.30;1.40;;;11.78;100.00;95853.81;646791;212;31526;-75
2022/06/10 00:24:45;;;;;;;1.20;0.60;;;11.20;1.40;;;11.76;100.00;95858.26;646214;216;31936;-76
2022/06/10 00:30:01;;;;;;;1.20;1.10;;;11.20;1.40;;;11.75;100.00;95855.89;647356;216;31497;-76
2022/06/10 00:32:43;;;;;;;0.73;0.30;;;11.20;1.40;;;11.70;100.00;95857.30;647891;216;34423;-75
2022/06/10 00:35:52;;;;;;;0.60;0.40;;;11.20;1.40;;;11.70;100.00;95862.20;646276;216;31823;-75
2022/06/10 00:38:33;;;;;;;0.40;0.20;;;11.20;1.40;;;11.68;100.00;95863.66;646741;212;31859;-75
2022/06/10 00:41:15;;;;;;;0.60;0.40;;;11.20;1.40;;;11.69;100.00;95869.55;646166;216;31497;-75
2022/06/10 00:46:32;;;;;;;0.60;0.50;;;11.20;1.40;;;11.63;100.00;95865.86;646238;216;35735;-75
2022/06/10 00:49:13;;;;;;;0.40;0.30;;;11.10;99.90;;;11.65;100.00;95867.63;646106;216;31493;-76
2022/06/10 00:51:55;;;;;;;1.10;0.70;;;11.10;99.90;;;11.61;100.00;95872.03;645072;216;42269;-75
2022/06/10 00:57:17;;;;;;;0.80;0.50;;;11.10;1.40;;;11.56;100.00;95868.60;647057;216;42733;-75
2022/06/10 01:00:00;;;;;;;0.40;0.40;;;11.00;1.40;;;11.58;100.00;95869.83;647032;216;31498;-75
2022/06/10 01:02:42;;;;;;;0.50;0.40;;;11.10;99.90;;;11.53;100.00;95866.98;647129;216;42949;-75
2022/06/10 01:05:23;;;;;;;0.40;0.25;;;11.00;1.40;;;11.54;100.00;95865.17;646194;216;32121;-75
2022/06/10 01:08:05;;;;;;;0.50;0.30;;;11.00;1.40;;;11.50;100.00;95867.76;646500;216;31544;-75
2022/06/10 01:10:50;;;;;;;0.60;0.40;;;11.00;1.40;;;11.54;100.00;95861.53;618819;226;42514;-75
2022/06/10 01:16:12;;;;;;;0.80;0.50;;;11.00;1.40;;;11.48;100.00;95865.36;646481;216;31486;-75
2022/06/10 01:18:54;;;;;;;0.40;0.37;;;11.00;1.40;;;11.47;100.00;95866.84;647050;212;43058;-76
2022/06/10 01:22:05;;;;;;;0.70;0.40;;;11.00;1.40;;;11.40;100.00;95863.17;646566;216;32284;-75
2022/06/10 01:24:50;;;;;;;0.70;0.53;;;10.90;1.40;;;11.43;100.00;95859.92;646096;216;42428;-75
2022/06/10 01:27:56;;;;;;;0.63;0.33;;;10.90;1.40;;;11.41;100.00;95863.86;647038;216;31545;-75
2022/06/10 01:36:03;;;;;;;1.52;0.65;;;10.90;1.40;;;11.42;100.00;95870.84;646704;216;31548;-75
2022/06/10 01:38:49;;;;;;;0.60;0.40;;;10.90;1.40;;;11.41;100.00;95873.32;619666;226;32401;-75
2022/06/10 01:41:35;;;;;;;0.50;0.40;;;10.90;1.40;;;11.37;100.00;95882.02;645791;216;31525;-75
2022/06/10 01:46:56;;;;;;;0.60;0.45;;;10.90;1.40;;;11.37;100.00;95876.05;645988;216;31468;-76
2022/06/10 01:49:46;;;;;;;0.83;0.53;;;10.90;1.40;;;11.36;100.00;95872.97;619296;223;32194;-75
2022/06/10 01:52:43;;;;;;;0.40;0.30;;;10.80;1.40;;;11.33;100.00;95875.64;644968;216;43013;-75
2022/06/10 01:55:40;;;;;;;0.85;0.37;;;10.80;1.40;;;11.32;100.00;95880.39;618793;222;32298;-75
2022/06/10 01:58:25;;;;;;;0.40;0.30;;;10.80;1.40;;;11.29;100.00;95882.78;646559;212;31646;-75
2022/06/10 02:01:07;;;;;;;0.40;0.40;;;10.80;1.40;;;11.34;100.00;95886.45;646627;216;31523;-75
2022/06/10 02:03:59;;;;;;;0.80;0.40;;;10.90;1.40;;;11.30;100.00;95885.86;646457;216;31531;-75
2022/06/10 02:06:53;;;;;;;0.80;0.40;;;10.80;1.40;;;11.37;100.00;95892.61;645388;215;31486;-75
2022/06/10 02:09:42;;;;;;;0.40;0.20;;;10.90;1.40;;;11.36;100.00;95888.02;647553;216;31496;-75
2022/06/10 02:12:33;;;;;;;0.90;0.90;;;10.80;1.40;;;11.33;100.00;95890.20;647717;216;31532;-75
2022/06/10 02:17:57;;;;;;;0.50;0.40;;;10.80;1.40;;;11.22;100.00;95897.55;646692;216;31705;-75
2022/06/10 02:20:38;;;;;;;0.40;0.40;;;10.80;1.40;;;11.28;100.00;95904.45;647721;216;42106;-75
2022/06/10 02:23:21;;;;;;;0.50;0.37;;;10.80;1.40;;;11.22;100.00;95910.16;646124;212;42107;-75
2022/06/10 02:26:03;;;;;;;0.40;0.30;;;10.70;1.40;;;11.23;100.00;95911.77;646964;216;42311;-75
2022/06/10 02:28:49;;;;;;;0.90;0.60;;;10.80;1.40;;;11.30;100.00;95915.78;645716;212;32229;-75
2022/06/10 02:31:32;;;;;;;0.50;0.40;;;10.80;1.40;;;11.29;100.00;95916.11;648088;216;31585;-75
2022/06/10 02:39:03;;;;;;;0.40;0.30;;;10.80;1.40;;;11.25;100.00;95919.11;646089;212;32462;-75
2022/06/10 02:41:52;;;;;;;0.40;0.30;;;10.80;1.40;;;11.28;100.00;95924.50;646394;214;42822;-75
2022/06/10 02:44:44;;;;;;;0.55;0.45;;;10.80;1.40;;;11.28;100.00;95926.34;647570;216;42431;-74
2022/06/10 02:47:27;;;;;;;0.50;0.50;;;10.80;1.40;;;11.27;100.00;95925.05;646666;216;42109;-75
2022/06/10 02:50:09;;;;;;;0.40;0.30;;;10.80;1.40;;;11.30;100.00;95932.05;646968;212;42098;-75
2022/06/10 02:52:52;;;;;;;0.50;0.40;;;10.80;1.40;;;11.22;100.00;95934.52;638906;212;42507;-75
2022/06/10 02:55:33;;;;;;;0.40;0.30;;;10.70;1.40;;;11.22;100.00;95937.03;646752;212;42118;-76
2022/06/10 03:01:14;;;;;;;0.70;0.40;;;10.80;1.40;;;11.21;100.00;95938.06;620016;222;31967;-75
2022/06/10 03:04:12;;;;;;;1.10;0.33;;;10.70;1.40;;;11.18;100.00;95942.41;646780;216;31709;-75
2022/06/10 03:07:14;;;;;;;1.30;0.40;;;10.70;1.40;;;11.15;100.00;95941.30;647057;216;31542;-75
2022/06/10 03:10:15;;;;;;;0.40;0.20;;;10.70;1.40;;;11.12;100.00;95946.66;645904;216;31749;-75
2022/06/10 03:13:22;;;;;;;1.10;0.50;;;10.60;1.40;;;11.16;100.00;95947.92;646429;216;31502;-75
2022/06/10 03:16:15;;;;;;;0.40;0.40;;;10.70;1.40;;;11.12;100.00;95953.70;646427;216;33440;-75
2022/06/10 03:19:25;;;;;;;0.50;0.50;;;10.60;1.40;;;11.10;100.00;95954.66;646517;216;32211;-75
2022/06/10 03:22:10;;;;;;;0.40;0.30;;;10.60;1.40;;;11.11;100.00;95960.35;646888;216;42115;-75
2022/06/10 03:25:07;;;;;;;0.40;0.30;;;10.60;1.40;;;11.15;100.00;95955.63;646819;216;32024;-75
2022/06/10 03:27:58;;;;;;;0.80;0.40;;;10.60;1.40;;;11.14;100.00;95962.25;646538;216;42029;-75
2022/06/10 03:30:59;;;;;;;1.00;0.50;;;10.60;1.40;;;11.18;100.00;95963.80;646655;212;31497;-75
2022/06/10 03:35:52;;;;;;;0.50;0.40;;;10.70;1.40;;;11.18;100.00;95971.55;646478;216;31742;-75
2022/06/10 03:38:33;;;;;;;0.40;0.40;;;10.70;1.40;;;11.17;100.00;95968.25;646469;216;31743;-75
2022/06/10 03:41:19;;;;;;;0.45;0.40;;;10.70;1.40;;;11.19;100.00;95968.60;619554;222;42691;-76
2022/06/10 03:44:01;;;;;;;0.50;0.50;;;10.70;1.40;;;11.24;100.00;95972.11;646579;216;31462;-75
2022/06/10 03:46:42;;;;;;;0.70;0.50;;;10.70;1.40;;;11.23;100.00;95971.58;646620;216;42122;-75
2022/06/10 03:49:24;;;;;;;0.60;0.40;;;10.70;1.40;;;11.26;100.00;95967.03;646306;216;42278;-75
2022/06/10 03:52:09;;;;;;;0.60;0.43;;;10.70;1.40;;;11.29;100.00;95978.92;643060;216;31642;-76
2022/06/10 03:54:51;;;;;;;0.40;0.27;;;10.70;1.40;;;11.30;100.00;95981.78;646565;216;42172;-76
2022/06/10 03:57:36;;;;;;;0.57;0.50;;;10.70;1.40;;;11.33;100.00;95978.20;646717;216;32524;-75
2022/06/10 04:00:21;;;;;;;3.80;0.60;;;10.80;1.40;;;11.38;100.00;95984.67;646839;216;31534;-75
2022/06/10 04:03:03;;;;;;;2.70;1.10;;;10.90;1.40;;;11.45;100.00;95980.86;646901;216;31681;-75
2022/06/10 04:05:45;;;;;;;0.45;0.40;;;10.90;1.40;;;11.48;100.00;95988.47;619485;222;32364;-75
2022/06/10 04:08:26;;;;;;;0.77;0.40;;;10.90;1.40;;;11.47;100.00;95994.07;647083;216;31527;-75
2022/06/10 04:11:08;;;;;;;0.80;0.50;;;11.00;1.40;;;11.58;100.00;95996.75;646987;216;42129;-75
2022/06/10 04:13:50;;;;;;;0.50;0.40;;;11.00;1.40;;;11.59;100.00;96000.70;647844;212;37507;-75
2022/06/10 04:16:34;;;;;;;0.40;0.30;;;11.00;1.40;;;11.66;100.00;96001.50;646057;212;31530;-75
2022/06/10 04:19:16;;;;;;;0.50;0.50;;;11.10;1.40;;;11.71;100.00;96003.07;648037;216;31518;-75
2022/06/10 04:21:58;;;;;;;0.70;0.40;;;11.10;1.40;;;11.81;100.00;96005.59;646452;212;42645;-75
2022/06/10 04:24:39;;;;;;;0.50;0.30;;;11.20;1.40;;;11.85;100.00;96011.66;646606;216;32106;-75
2022/06/10 04:27:21;;;;;;;0.50;0.50;;;11.20;1.40;;;11.86;100.00;96014.74;646040;212;31808;-75
2022/06/10 04:30:03;;;;;;;0.40;0.30;;;11.20;1.40;;;11.95;100.00;96012.59;647469;212;31597;-76
2022/06/10 04:35:56;;;;;;;0.50;0.40;;;11.30;1.40;;;11.95;100.00;96013.30;648793;216;31458;-75
2022/06/10 04:38:37;;;;;;;0.50;0.30;;;11.30;1.40;;;11.92;100.00;96016.57;646853;216;33576;-75
2022/06/10 04:41:19;;;;;;;0.40;0.30;;;11.30;1.40;;;12.06;100.00;96018.38;619124;222;31865;-75
2022/06/10 04:44:01;;;;;;;0.60;0.60;;;11.40;1.40;;;12.07;100.00;96020.97;647292;216;35009;-75
2022/06/10 04:46:42;;;;;;;0.93;0.43;;;11.40;1.40;;;12.16;100.00;96022.08;646508;216;31520;-76
2022/06/10 04:52:02;;;;;;;0.50;0.50;;;11.50;1.40;;;12.23;100.00;96022.50;617599;222;31989;-75
2022/06/10 04:57:17;;;;;;;1.10;0.50;;;11.60;1.40;;;12.19;100.00;96027.41;645781;216;31627;-75
2022/06/10 04:59:59;;;;;;;0.50;0.40;;;11.60;1.40;;;12.16;100.00;96026.38;645716;216;32521;-75
2022/06/10 05:02:41;;;;;;;0.43;0.32;;;11.60;1.40;;;12.31;100.00;96026.93;646576;216;31992;-75
2022/06/10 05:05:22;;;;;;;3.10;0.50;;;11.70;1.40;;;12.38;100.00;96022.06;647572;216;31493;-75
2022/06/10 05:08:04;;;;;;;0.60;0.40;;;11.80;1.40;;;12.44;100.00;96021.62;646332;216;31670;-75
2022/06/10 05:10:47;;;;;;;0.60;0.40;;;11.80;1.40;;;12.50;100.00;96030.78;647163;216;31496;-75
2022/06/10 05:13:31;;;;;;;0.60;0.40;;;11.90;1.40;;;12.58;100.00;96034.75;646033;216;34113;-75
2022/06/10 05:16:12;;;;;;;0.80;0.47;;;11.90;1.40;;;12.62;100.00;96038.74;646373;216;31519;-75
2022/06/10 05:18:55;;;;;;;1.10;0.40;;;12.00;1.40;;;12.62;100.00;96044.52;646948;212;34550;-75
2022/06/10 05:21:36;;;;;;;0.50;0.43;;;12.00;1.40;;;12.63;100.00;96045.75;645875;216;38372;-75
2022/06/10 05:24:18;;;;;;;0.50;0.40;;;12.00;1.40;;;12.69;100.00;96049.80;618792;222;31829;-75
2022/06/10 05:26:59;;;;;;;0.90;0.50;;;12.00;1.40;;;12.64;100.00;96050.02;644514;216;31496;-75
2022/06/10 05:29:41;;;;;;;1.60;0.55;;;12.00;1.40;;;12.74;100.00;96051.59;647267;216;32115;-75
2022/06/10 05:32:23;;;;;;;1.20;0.57;;;12.00;1.40;;;12.68;100.00;96051.12;619627;226;32153;-75
2022/06/10 05:35:52;;;;;;;0.60;0.50;;;12.10;1.40;;;13.00;100.00;96055.47;647735;216;31463;-76
2022/06/10 05:38:34;;;;;;;0.70;0.60;;;12.30;1.40;;;13.10;100.00;96056.17;646677;213;31639;-75
2022/06/10 05:44:02;;;;;;;0.70;0.50;;;12.30;1.40;;;13.07;100.00;96058.96;646000;216;32202;-75
2022/06/10 05:46:44;;;;;;;0.50;0.40;;;12.50;1.40;;;13.26;100.00;96060.17;647207;212;37108;-75
2022/06/10 05:49:26;;;;;;;0.60;0.60;;;12.50;1.40;;;13.34;100.00;96063.31;645984;212;32999;-75
2022/06/10 05:52:10;;;;;;;1.40;0.90;;;12.70;1.40;;;13.52;100.00;96064.57;643035;216;42682;-74
2022/06/10 05:54:56;;;;;;;1.40;1.02;;;12.80;1.40;;;13.69;100.00;96067.83;646685;216;40707;-73
2022/06/10 05:57:37;;;;;;;0.50;0.40;;;13.00;1.40;;;13.78;100.00;96068.78;645568;212;31483;-73
2022/06/10 06:00:19;;;;;;;0.80;0.40;;;13.20;1.40;;;13.92;100.00;96069.47;647456;216;31528;-74
2022/06/10 06:03:01;;;;;;;0.40;0.28;;;13.40;1.40;;;14.18;100.00;96073.94;648008;216;42250;-75
2022/06/10 06:05:43;;;;;;;0.70;0.60;;;13.60;1.40;;;14.49;100.00;96078.11;647897;216;31554;-74
2022/06/10 06:08:30;;;;;;;0.60;0.60;;;13.80;1.40;;;14.70;100.00;96075.35;646555;216;31515;-75
2022/06/10 06:11:14;;;;;;;0.90;0.70;;;14.00;1.40;;;14.83;100.00;96080.81;645643;216;31517;-73
2022/06/10 06:13:58;;;;;;;1.23;0.40;;;14.00;1.40;;;14.96;100.00;96082.67;645868;216;31479;-73
2022/06/10 06:16:40;;;;;;;1.33;0.80;;;14.00;1.40;;;14.81;100.00;96081.09;647593;216;31844;-72
2022/06/10 06:19:22;;;;;;;2.80;0.70;;;14.00;1.40;;;15.12;100.00;96085.11;646240;212;31579;-73
2022/06/10 06:22:04;;;;;;;1.50;1.20;;;14.30;1.40;;;15.26;100.00;96090.97;646474;212;31495;-73
2022/06/10 06:24:46;;;;;;;0.80;0.60;;;14.40;1.40;;;15.18;100.00;96094.77;619673;222;32565;-74
2022/06/10 06:27:28;;;;;;;1.00;0.80;;;14.30;1.40;;;15.19;100.00;96092.89;646221;212;32272;-73
2022/06/10 06:30:13;;;;;;;0.90;0.60;;;14.20;1.40;;;15.27;100.00;96098.41;646032;212;31530;-73
2022/06/10 06:33:01;;;;;;;0.90;0.30;;;14.20;1.40;;;15.15;100.00;96099.56;646608;215;32037;-76
2022/06/10 06:35:57;;;;;;;0.95;0.65;;;14.00;1.40;;;15.18;100.00;96097.63;646680;212;31561;-73
2022/06/10 06:38:39;;;;;;;2.10;0.50;;;14.00;1.40;;;15.14;100.00;96104.06;647158;212;31481;-73
2022/06/10 06:41:21;;;;;;;1.30;0.50;;;14.10;1.40;;;14.94;100.00;96106.80;646845;216;31476;-73
2022/06/10 06:44:04;;;;;;;1.00;0.90;;;14.00;1.40;;;14.87;100.00;96106.75;645408;212;31506;-73
2022/06/10 06:46:44;;;;;;;1.55;0.60;;;14.00;1.40;;;15.21;100.00;96105.94;646230;216;31453;-73
2022/06/10 06:49:25;;;;;;;0.98;0.40;;;14.20;1.40;;;15.52;100.00;96110.00;646821;212;31476;-73
2022/06/10 06:52:08;;;;;;;0.70;0.50;;;14.50;1.40;;;15.46;100.00;96117.83;643082;216;31752;-73
2022/06/10 06:54:50;;;;;;;0.80;0.50;;;14.50;1.40;;;15.45;100.00;96119.70;619056;222;33244;-73
2022/06/10 06:57:40;;;;;;;0.70;0.50;;;14.50;1.40;;;15.81;100.00;96116.22;646328;216;31912;-73
2022/06/10 07:00:21;;;;;;;1.00;0.73;;;14.90;1.40;;;15.94;100.00;96117.78;644897;216;42120;-73
2022/06/10 07:03:03;;;;;;;0.50;0.40;;;15.10;1.40;;;15.81;100.00;96121.14;647331;212;31472;-73
2022/06/10 07:05:44;;;;;;;1.17;0.60;;;15.00;1.40;;;16.03;100.00;96127.84;647426;216;31498;-73
2022/06/10 07:08:31;;;;;;;1.30;0.60;;;15.10;1.40;;;16.36;100.00;96125.39;618465;226;31845;-73
2022/06/10 07:11:08;;;;;;;2.00;0.60;;;15.30;1.40;;;16.05;100.00;96128.34;646867;216;31519;-73
2022/06/10 07:13:52;;;;;;;1.50;0.50;;;15.20;1.40;;;16.29;100.00;96129.66;646229;212;32281;-73
2022/06/10 07:16:34;;;;;;;0.68;0.50;;;15.30;1.40;;;16.48;100.00;96127.63;646442;216;32415;-74
2022/06/10 07:19:16;;;;;;;1.20;0.40;;;15.60;1.40;;;17.07;100.00;96125.73;619328;226;31886;-73
2022/06/10 07:21:57;;;;;;;1.30;0.80;;;16.00;1.40;;;17.49;100.00;96128.45;646987;216;31768;-73
2022/06/10 07:24:39;;;;;;;0.90;0.40;;;16.30;1.40;;;17.14;100.00;96127.55;647688;216;31547;-73
2022/06/10 07:27:21;;;;;;;0.50;0.50;;;15.90;1.40;;;17.30;100.00;96130.48;645932;216;31518;-73
2022/06/10 07:30:02;;;;;;;1.45;0.80;;;16.00;1.40;;;16.88;100.00;96128.64;647186;212;31482;-73
2022/06/10 07:32:47;;;;;;;1.40;0.70;;;15.80;1.40;;;16.64;100.00;96125.07;646566;214;31505;-73
2022/06/10 07:35:51;;;;;;;2.37;1.08;;;15.70;1.40;;;16.87;100.00;96124.94;646886;216;31708;-73
2022/06/10 07:38:33;;;;;;;0.90;0.60;;;15.90;1.40;;;17.04;100.00;96123.63;618309;226;32255;-72
2022/06/10 07:44:14;;;;;;;0.70;0.60;;;16.10;1.40;;;17.43;100.00;96120.63;618786;226;32340;-73
2022/06/10 07:46:55;;;;;;;0.80;0.70;;;16.60;1.40;;;17.72;100.00;96119.89;618901;226;31883;-73
2022/06/10 07:49:37;;;;;;;2.28;0.70;;;16.70;1.40;;;17.70;100.00;96119.41;618658;226;31887;-72
2022/06/10 07:52:18;;;;;;;0.70;0.50;;;16.70;1.40;;;17.51;100.00;96124.70;646745;216;31489;-72
2022/06/10 07:55:00;;;;;;;2.10;0.80;;;16.50;1.40;;;17.05;100.00;96125.28;646307;216;32265;-73
2022/06/10 07:57:42;;;;;;;0.73;0.73;;;16.30;1.40;;;17.13;100.00;96126.84;646366;212;31568;-73
2022/06/10 08:00:25;;;;;;;1.08;0.70;;;16.10;1.40;;;17.14;100.00;96128.17;646685;216;31529;-73
2022/06/10 08:03:06;;;;;;;0.80;0.70;;;16.20;1.40;;;17.66;100.00;96122.87;647015;212;31524;-72
2022/06/10 08:05:51;;;;;;;0.93;0.80;;;16.40;1.40;;;17.95;100.00;96123.95;646680;216;31623;-73
2022/06/10 08:08:32;;;;;;;1.20;0.90;;;16.50;1.40;;;17.98;100.00;96124.23;647926;216;31537;-72
2022/06/10 08:11:14;;;;;;;1.00;0.80;;;17.00;1.40;;;17.79;100.00;96127.52;648178;216;31511;-73
2022/06/10 08:13:56;;;;;;;1.00;0.50;;;16.90;1.40;;;18.27;100.00;96126.45;646605;216;31508;-73
2022/06/10 08:16:38;;;;;;;1.30;1.00;;;16.90;1.40;;;18.37;100.00;96124.16;645178;212;31622;-72
2022/06/10 08:19:19;;;;;;;1.02;0.90;;;17.00;1.40;;;18.48;100.00;96127.27;646473;215;31983;-73
2022/06/10 08:24:35;;;;;;;1.30;0.95;;;17.20;1.40;;;18.25;100.00;96124.73;646545;213;31505;-73
2022/06/10 08:27:17;;;;;;;2.15;1.30;;;17.20;1.40;;;18.58;100.00;96121.22;647156;212;31475;-72
2022/06/10 08:29:58;;;;;;;1.05;0.95;;;17.10;1.40;;;19.08;100.00;96121.24;645939;212;31478;-72
2022/06/10 08:32:40;;;;;;;1.70;0.80;;;17.60;1.40;;;19.04;100.00;96118.64;645371;216;31584;-72
2022/06/10 08:35:54;;;;;;;2.50;0.80;;;18.10;1.40;;;19.66;100.00;96124.61;645446;212;31914;-73
2022/06/10 08:38:35;;;;;;;2.92;1.05;;;18.10;1.40;;;20.07;100.00;96124.77;646677;216;42186;-72
2022/06/10 08:47:03;;;;;;;1.10;0.77;;;18.90;1.40;;;19.92;100.00;96127.61;646758;216;34561;-72
2022/06/10 08:49:49;;;;;;;1.37;1.10;;;18.10;1.40;;;19.40;100.00;96128.84;647068;212;31502;-73
2022/06/10 08:52:52;;;;;;;1.20;1.10;;;18.20;1.40;;;19.49;99.29;96122.98;613925;226;32011;-72
2022/06/10 08:55:43;;;;;;;0.93;0.70;;;17.80;1.40;;;19.68;100.00;96130.19;646729;212;31664;-72
2022/06/10 08:58:28;;;;;;;1.17;1.08;;;18.10;1.40;;;19.52;100.00;96130.05;618841;225;32008;-72
2022/06/10 09:01:14;;;;;;;1.00;0.80;;;17.50;1.40;;;19.21;100.00;96129.27;646867;212;42135;-72
2022/06/10 09:04:02;;;;;;;2.30;1.15;;;17.90;1.40;;;20.29;100.00;96126.22;646723;212;31516;-72
2022/06/10 09:06:48;;;;;;;1.33;0.70;;;18.80;1.40;;;21.33;100.00;96126.27;620204;226;35383;-73
2022/06/10 09:09:32;;;;;;;2.90;1.20;;;19.40;1.40;;;20.50;97.42;96128.15;618583;226;31887;-72
2022/06/10 09:12:16;;;;;;;3.70;1.30;;;18.70;1.40;;;20.48;100.00;96125.75;646270;212;31582;-72
2022/06/10 09:14:58;;;;;;;1.80;1.10;;;18.90;1.40;;;21.71;100.00;96125.58;647548;216;31511;-72
2022/06/10 09:17:41;;;;;;;1.92;0.80;;;20.50;1.40;;;22.77;97.02;96124.73;646561;216;31910;-72
2022/06/10 09:20:34;;;;;;;1.98;1.20;;;21.60;1.40;;;23.67;90.74;96121.30;645833;212;31504;-72
2022/06/10 09:23:17;;;;;;;1.37;1.00;;;22.30;1.40;;;22.53;85.60;96129.37;646535;216;31700;-72
2022/06/10 09:25:59;;;;;;;1.50;1.30;;;21.30;1.40;;;24.08;87.39;96125.66;646660;216;31532;-72
2022/06/10 09:28:42;;;;;;;1.62;1.05;;;23.80;99.90;;;25.07;73.97;96123.97;646111;212;42111;-72
2022/06/10 09:31:24;;;;;;;3.00;1.70;;;26.50;1.00;;;25.12;66.85;96124.05;646183;216;42226;-72
2022/06/10 09:38:33;;;;;;;1.77;1.30;;;19.70;1.00;;;21.62;77.90;96135.93;647172;216;31820;-73
2022/06/10 09:41:34;;;;;;;2.10;1.20;;;18.70;1.00;;;22.74;84.11;96132.34;646821;212;31572;-73
2022/06/10 09:44:22;;;;;;;2.67;1.20;;;19.50;1.00;;;22.53;83.30;96128.58;646754;216;31545;-73
2022/06/10 09:47:29;;;;;;;2.33;1.67;;;19.90;1.00;;;22.31;81.57;96132.66;645785;216;31774;-72
2022/06/10 09:58:30;;;;;;;3.80;1.30;;;19.60;1.00;;;23.00;87.60;96132.38;646469;216;31571;-73
2022/06/10 10:01:32;;;;;;;1.52;1.00;;;19.80;99.90;;;21.92;80.66;96139.91;647143;216;42143;-73
2022/06/10 10:07:06;;;;;;;1.30;1.20;;;19.50;99.90;;;21.85;85.56;96129.03;600090;233;32311;-74
2022/06/10 10:10:13;;;;;;;2.12;1.17;;;19.20;59.80;;;21.84;84.43;96128.33;646913;212;33574;-73
2022/06/10 10:13:25;;;;;;;2.65;1.05;;;20.50;99.90;;;24.28;82.61;96122.16;646489;216;31665;-73
2022/06/10 10:16:07;;;;;;;1.30;1.00;;;24.30;1.00;;;26.77;73.27;96119.01;647198;212;42160;-72
2022/06/10 10:19:08;;;;;;;1.60;1.35;;;25.60;1.00;;;26.55;61.77;96113.58;617996;222;31904;-73
2022/06/10 10:21:58;;;;;;;2.10;1.20;;;24.40;1.00;;;26.27;67.34;96112.24;641876;215;42149;-73
2022/06/10 10:24:39;;;;;;;3.42;1.40;;;25.10;99.90;;;28.44;64.42;96101.77;646543;216;42101;-73
2022/06/10 10:27:31;;;;;;;1.60;1.00;;;26.80;19.40;;;29.32;55.38;96099.48;619502;226;32553;-73
2022/06/10 10:30:25;;;;;;;2.30;1.10;;;26.60;99.90;;;31.02;53.61;96100.30;645219;212;31587;-73
2022/06/10 10:35:58;;;;;;;1.90;1.40;;;28.30;99.90;;;32.27;45.08;96099.59;648454;216;31685;-74
2022/06/10 10:38:46;;;;;;;1.20;1.10;;;28.50;99.90;;;33.11;48.58;96097.91;646241;216;32074;-73
2022/06/10 10:41:35;;;;;;;1.50;1.10;;;27.90;99.90;;;30.13;48.56;96105.47;646769;212;42391;-72
2022/06/10 10:44:24;;;;;;;2.22;1.10;;;26.90;99.90;;;32.32;53.03;96095.84;645563;216;31915;-73
2022/06/10 10:47:20;;;;;;;1.00;0.90;;;27.80;99.90;;;34.33;47.61;96091.65;645783;216;31741;-73
2022/06/10 10:50:21;;;;;;;1.37;1.20;;;29.10;99.90;;;34.42;44.86;96092.86;647033;212;31497;-72
2022/06/10 10:53:03;;;;;;;2.50;1.40;;;28.70;99.90;;;34.69;44.24;96090.91;638175;216;31694;-74
2022/06/10 10:55:45;;;;;;;1.08;0.90;;;28.30;99.90;;;34.51;41.38;96090.69;647446;216;31555;-73
2022/06/10 10:58:31;;;;;;;2.30;1.10;;;28.50;99.90;;;32.69;40.45;96096.38;646004;216;31623;-73
2022/06/10 11:01:43;;;;;;;1.17;1.08;;;25.00;99.90;;;29.17;46.18;96097.75;648082;216;31744;-73
2022/06/10 11:03:54;;;;;;;1.00;0.90;;;22.90;1.00;;;27.77;48.41;96100.63;648439;216;31493;-74
2022/06/10 11:09:15;;;;;;;1.10;0.90;;;21.10;1.00;;;26.03;52.31;96106.91;644908;212;31516;-74
2022/06/10 11:11:57;;;;;;;1.20;1.02;;;21.30;1.00;;;27.75;50.50;96099.88;647373;216;31701;-73
2022/06/10 11:14:38;;;;;;;1.08;0.98;;;24.70;1.00;;;29.57;43.68;96092.98;618258;226;31938;-74
2022/06/10 11:17:23;;;;;;;3.17;0.90;;;23.90;1.00;;;27.46;46.33;96098.25;650152;212;31534;-73
2022/06/10 11:20:27;;;;;;;1.00;0.82;;;22.10;1.00;;;26.35;49.78;96099.94;646709;216;31782;-73
2022/06/10 11:23:11;;;;;;;1.70;1.17;;;21.00;1.00;;;24.27;54.33;96099.55;647783;212;32164;-73
2022/06/10 11:26:05;;;;;;;1.90;1.00;;;20.70;1.00;;;23.27;58.74;96099.64;644346;216;32008;-73
2022/06/10 11:28:46;;;;;;;2.20;1.00;;;20.30;1.00;;;23.28;59.46;96099.80;646124;216;31849;-73
2022/06/10 11:31:40;;;;;;;1.05;0.95;;;20.40;1.00;;;22.61;62.76;96095.38;646309;212;31527;-73
2022/06/10 11:35:59;;;;;;;1.58;1.00;;;20.20;1.00;;;23.51;59.25;96098.41;648624;212;36142;-73
2022/06/10 11:38:51;;;;;;;0.90;0.70;;;21.00;1.00;;;26.47;54.37;96087.59;647514;216;31699;-73
2022/06/10 11:41:34;;;;;;;2.47;0.95;;;23.00;1.00;;;25.53;51.35;96085.41;645890;212;32432;-73
2022/06/10 11:44:18;;;;;;;3.05;1.10;;;21.60;1.00;;;25.18;52.92;96085.19;648699;216;31536;-74
2022/06/10 11:47:03;;;;;;;1.20;0.90;;;21.20;1.00;;;23.97;54.59;96085.72;649308;216;31485;-74
2022/06/10 11:49:49;;;;;;;1.27;0.80;;;20.70;1.00;;;24.00;58.26;96083.72;620436;226;31921;-74
2022/06/10 11:52:34;;;;;;;1.35;1.20;;;20.70;1.00;;;24.42;54.48;96078.97;614794;226;31970;-74
2022/06/10 11:55:18;;;;;;;2.08;0.85;;;21.20;1.00;;;24.42;56.85;96080.84;645619;212;31526;-73
2022/06/10 12:01:13;;;;;;;1.37;0.80;;;20.80;99.90;;;23.99;61.71;96076.42;646954;216;31590;-73
2022/06/10 12:04:13;;;;;;;1.80;0.82;;;21.00;99.90;;;24.15;58.83;96078.03;647440;212;31573;-73
2022/06/10 12:06:54;;;;;;;1.20;0.95;;;21.00;99.90;;;24.56;57.84;96072.70;647798;216;31701;-73
2022/06/10 12:09:38;;;;;;;2.50;1.00;;;21.20;99.90;;;25.12;53.68;96070.30;646908;212;31588;-73
2022/06/10 12:12:30;;;;;;;0.85;0.70;;;21.70;99.90;;;24.46;55.04;96071.14;646266;216;31640;-73
2022/06/10 12:17:56;;;;;;;1.10;0.90;;;21.30;1.00;;;23.11;59.77;96076.77;646743;212;31602;-73
2022/06/10 12:20:57;;;;;;;2.30;0.90;;;20.40;1.00;;;22.84;62.52;96073.58;646835;216;31651;-73
2022/06/10 12:23:38;;;;;;;8.77;1.40;;;20.70;1.00;;;24.63;57.79;96066.92;641860;217;32796;-73
2022/06/10 12:26:30;;;;;;;1.10;0.90;;;21.90;1.00;;;26.46;52.61;96060.98;646002;216;42211;-73
2022/06/10 12:29:18;;;;;;;1.50;1.08;;;22.70;1.00;;;28.55;47.86;96061.56;646993;216;31495;-73
2022/06/10 12:32:06;;;;;;;1.90;0.90;;;23.60;1.00;;;28.88;49.68;96054.82;645880;212;31510;-73
2022/06/10 12:35:54;;;;;;;0.80;0.73;;;22.80;1.00;;;27.64;48.70;96058.46;618814;226;32183;-73
2022/06/10 12:38:36;;;;;;;1.70;1.30;;;22.50;1.00;;;26.27;51.44;96061.52;647219;216;31904;-73
2022/06/10 12:41:19;;;;;;;1.92;1.00;;;21.80;1.00;;;25.82;53.91;96059.75;646932;216;31532;-73
2022/06/10 12:44:00;;;;;;;0.98;0.93;;;21.80;1.00;;;26.52;53.49;96057.31;647288;216;31539;-73
2022/06/10 12:46:52;;;;;;;1.95;1.17;;;23.40;1.00;;;28.02;50.69;96058.58;646186;216;31748;-74
2022/06/10 12:49:39;;;;;;;3.00;1.05;;;24.50;1.00;;;32.19;45.30;96044.87;632755;221;31742;-73
2022/06/10 12:52:44;;;;;;;1.25;0.90;;;26.10;1.00;;;32.79;40.94;96041.94;642074;216;31737;-74
2022/06/10 12:55:28;;;;;;;1.10;0.62;;;24.90;1.00;;;28.71;49.91;96047.88;645515;216;43414;-73
2022/06/10 12:58:09;;;;;;;2.60;1.50;;;23.10;1.00;;;28.71;51.52;96052.61;645360;212;31674;-73
2022/06/10 13:00:52;;;;;;;1.60;1.17;;;22.70;1.00;;;27.44;51.96;96046.86;646856;212;42265;-73